sensor_id;sensor_type;location;lat;lon;timestamp;temperature;humidity
38436;DHT22;24220;48.168;14.024;2023-04-25T00:02:03;14.60;61.10
38436;DHT22;24220;48.168;14.024;2023-04-25T00:04:30;14.60;60.80
38436;DHT22;24220;48.168;14.024;2023-04-25T00:07:00;14.60;61.00
38436;DHT22;24220;48.168;14.024;2023-04-25T00:09:31;14.60;61.00
38436;DHT22;24220;48.168;14.024;2023-04-25T00:11:59;14.60;61.10
38436;DHT22;24220;48.168;14.024;2023-04-25T00:14:29;14.60;61.10
38436;DHT22;24220;48.168;14.024;2023-04-25T00:16:57;14.60;61.00
38436;DHT22;24220;48.168;14.024;2023-04-25T00:19:27;14.60;61.10
38436;DHT22;24220;48.168;14.024;2023-04-25T00:21:55;14.50;61.10
38436;DHT22;24220;48.168;14.024;2023-04-25T00:24:25;14.50;61.30
38436;DHT22;24220;48.168;14.024;2023-04-25T00:26:52;14.50;61.40
38436;DHT22;24220;48.168;14.024;2023-04-25T00:29:20;14.50;61.50
38436;DHT22;24220;48.168;14.024;2023-04-25T00:31:47;14.40;61.40
38436;DHT22;24220;48.168;14.024;2023-04-25T00:37:05;14.40;61.90
38436;DHT22;24220;48.168;14.024;2023-04-25T00:39:33;14.40;61.90
38436;DHT22;24220;48.168;14.024;2023-04-25T00:42:01;14.40;61.80
38436;DHT22;24220;48.168;14.024;2023-04-25T00:44:31;14.30;62.00
38436;DHT22;24220;48.168;14.024;2023-04-25T00:47:01;14.30;62.00
38436;DHT22;24220;48.168;14.024;2023-04-25T00:49:31;14.30;62.00
38436;DHT22;24220;48.168;14.024;2023-04-25T00:51:58;14.30;61.90
38436;DHT22;24220;48.168;14.024;2023-04-25T00:54:26;14.20;62.00
38436;DHT22;24220;48.168;14.024;2023-04-25T00:56:57;14.20;62.00
38436;DHT22;24220;48.168;14.024;2023-04-25T00:59:28;14.20;62.10
38436;DHT22;24220;48.168;14.024;2023-04-25T01:01:57;14.20;62.10
38436;DHT22;24220;48.168;14.024;2023-04-25T01:04:27;14.10;62.00
38436;DHT22;24220;48.168;14.024;2023-04-25T01:06:55;14.10;62.10
38436;DHT22;24220;48.168;14.024;2023-04-25T01:09:25;14.10;62.30
38436;DHT22;24220;48.168;14.024;2023-04-25T01:11:52;14.10;62.70
38436;DHT22;24220;48.168;14.024;2023-04-25T01:14:20;14.00;62.70
38436;DHT22;24220;48.168;14.024;2023-04-25T01:16:50;14.00;62.60
38436;DHT22;24220;48.168;14.024;2023-04-25T01:19:20;14.00;62.60
38436;DHT22;24220;48.168;14.024;2023-04-25T01:21:48;14.00;63.00
38436;DHT22;24220;48.168;14.024;2023-04-25T01:24:17;14.00;63.10
38436;DHT22;24220;48.168;14.024;2023-04-25T01:26:45;14.00;63.10
38436;DHT22;24220;48.168;14.024;2023-04-25T01:29:18;14.00;63.30
38436;DHT22;24220;48.168;14.024;2023-04-25T01:31:46;14.00;63.40
38436;DHT22;24220;48.168;14.024;2023-04-25T01:34:14;14.00;63.30
38436;DHT22;24220;48.168;14.024;2023-04-25T01:36:41;14.00;63.30
38436;DHT22;24220;48.168;14.024;2023-04-25T01:39:11;14.10;63.60
38436;DHT22;24220;48.168;14.024;2023-04-25T01:41:38;14.10;63.70
38436;DHT22;24220;48.168;14.024;2023-04-25T01:44:06;14.00;63.40
38436;DHT22;24220;48.168;14.024;2023-04-25T01:46:34;14.10;63.70
38436;DHT22;24220;48.168;14.024;2023-04-25T01:49:02;14.10;63.40
38436;DHT22;24220;48.168;14.024;2023-04-25T01:51:30;14.10;63.60
38436;DHT22;24220;48.168;14.024;2023-04-25T01:53:58;14.10;63.40
38436;DHT22;24220;48.168;14.024;2023-04-25T01:56:31;14.10;63.70
38436;DHT22;24220;48.168;14.024;2023-04-25T01:58:58;14.10;63.30
38436;DHT22;24220;48.168;14.024;2023-04-25T02:01:26;14.20;63.10
38436;DHT22;24220;48.168;14.024;2023-04-25T02:03:56;14.20;62.90
38436;DHT22;24220;48.168;14.024;2023-04-25T02:06:24;14.20;63.20
38436;DHT22;24220;48.168;14.024;2023-04-25T02:08:53;14.20;63.00
38436;DHT22;24220;48.168;14.024;2023-04-25T02:11:21;14.20;63.00
38436;DHT22;24220;48.168;14.024;2023-04-25T02:13:48;14.20;63.00
38436;DHT22;24220;48.168;14.024;2023-04-25T02:16:16;14.20;62.90
38436;DHT22;24220;48.168;14.024;2023-04-25T02:18:44;14.20;62.90
38436;DHT22;24220;48.168;14.024;2023-04-25T02:21:12;14.20;62.80
38436;DHT22;24220;48.168;14.024;2023-04-25T02:23:41;14.10;62.80
38436;DHT22;24220;48.168;14.024;2023-04-25T02:26:09;14.10;62.60
38436;DHT22;24220;48.168;14.024;2023-04-25T02:28:40;14.10;62.80
38436;DHT22;24220;48.168;14.024;2023-04-25T02:31:09;14.10;62.50
38436;DHT22;24220;48.168;14.024;2023-04-25T02:33:37;14.10;62.50
38436;DHT22;24220;48.168;14.024;2023-04-25T02:36:04;14.10;62.40
38436;DHT22;24220;48.168;14.024;2023-04-25T02:38:34;14.10;62.50
38436;DHT22;24220;48.168;14.024;2023-04-25T02:41:03;14.10;62.60
38436;DHT22;24220;48.168;14.024;2023-04-25T02:43:33;14.10;62.70
38436;DHT22;24220;48.168;14.024;2023-04-25T02:46:03;14.10;62.60
38436;DHT22;24220;48.168;14.024;2023-04-25T02:48:33;14.10;62.70
38436;DHT22;24220;48.168;14.024;2023-04-25T02:51:00;14.00;62.60
38436;DHT22;24220;48.168;14.024;2023-04-25T02:53:27;14.00;62.50
38436;DHT22;24220;48.168;14.024;2023-04-25T02:55:57;14.00;62.50
38436;DHT22;24220;48.168;14.024;2023-04-25T02:58:26;14.00;62.60
38436;DHT22;24220;48.168;14.024;2023-04-25T03:00:55;13.90;62.60
38436;DHT22;24220;48.168;14.024;2023-04-25T03:03:23;13.90;62.70
38436;DHT22;24220;48.168;14.024;2023-04-25T03:05:52;13.90;62.90
38436;DHT22;24220;48.168;14.024;2023-04-25T03:08:19;13.80;62.90
38436;DHT22;24220;48.168;14.024;2023-04-25T03:10:47;13.80;62.90
38436;DHT22;24220;48.168;14.024;2023-04-25T03:13:14;13.80;63.10
38436;DHT22;24220;48.168;14.024;2023-04-25T03:15:43;13.80;63.30
38436;DHT22;24220;48.168;14.024;2023-04-25T03:18:10;13.80;63.50
38436;DHT22;24220;48.168;14.024;2023-04-25T03:20:42;13.80;64.20
38436;DHT22;24220;48.168;14.024;2023-04-25T03:23:12;13.80;63.60
38436;DHT22;24220;48.168;14.024;2023-04-25T03:25:40;13.80;63.70
38436;DHT22;24220;48.168;14.024;2023-04-25T03:28:07;13.70;63.70
38436;DHT22;24220;48.168;14.024;2023-04-25T03:30:34;13.70;63.60
38436;DHT22;24220;48.168;14.024;2023-04-25T03:33:04;13.80;63.60
38436;DHT22;24220;48.168;14.024;2023-04-25T03:35:32;13.70;63.40
38436;DHT22;24220;48.168;14.024;2023-04-25T03:37:59;13.70;63.30
38436;DHT22;24220;48.168;14.024;2023-04-25T03:40:27;13.70;63.40
38436;DHT22;24220;48.168;14.024;2023-04-25T03:42:54;13.70;63.40
38436;DHT22;24220;48.168;14.024;2023-04-25T03:45:22;13.70;63.60
38436;DHT22;24220;48.168;14.024;2023-04-25T03:47:49;13.70;63.60
38436;DHT22;24220;48.168;14.024;2023-04-25T03:50:17;13.70;64.30
38436;DHT22;24220;48.168;14.024;2023-04-25T03:52:46;13.60;63.70
38436;DHT22;24220;48.168;14.024;2023-04-25T03:55:14;13.70;63.80
38436;DHT22;24220;48.168;14.024;2023-04-25T03:57:41;13.60;63.70
38436;DHT22;24220;48.168;14.024;2023-04-25T04:00:11;13.60;63.90
38436;DHT22;24220;48.168;14.024;2023-04-25T04:02:39;13.60;63.90
38436;DHT22;24220;48.168;14.024;2023-04-25T04:05:09;13.60;64.00
38436;DHT22;24220;48.168;14.024;2023-04-25T04:07:36;13.60;64.00
38436;DHT22;24220;48.168;14.024;2023-04-25T04:10:07;13.60;64.10
38436;DHT22;24220;48.168;14.024;2023-04-25T04:12:35;13.60;64.00
38436;DHT22;24220;48.168;14.024;2023-04-25T04:15:04;13.60;64.10
38436;DHT22;24220;48.168;14.024;2023-04-25T04:17:34;13.60;64.00
38436;DHT22;24220;48.168;14.024;2023-04-25T04:23:33;13.60;63.90
38436;DHT22;24220;48.168;14.024;2023-04-25T04:26:05;13.60;63.80
38436;DHT22;24220;48.168;14.024;2023-04-25T04:28:34;13.60;63.70
38436;DHT22;24220;48.168;14.024;2023-04-25T04:31:02;13.60;63.70
38436;DHT22;24220;48.168;14.024;2023-04-25T04:33:30;13.60;63.70
38436;DHT22;24220;48.168;14.024;2023-04-25T04:35:58;13.60;63.90
38436;DHT22;24220;48.168;14.024;2023-04-25T04:38:30;13.60;63.90
38436;DHT22;24220;48.168;14.024;2023-04-25T04:41:00;13.60;63.80
38436;DHT22;24220;48.168;14.024;2023-04-25T04:43:27;13.60;64.00
38436;DHT22;24220;48.168;14.024;2023-04-25T04:46:00;13.60;64.10
38436;DHT22;24220;48.168;14.024;2023-04-25T04:48:27;13.60;64.10
38436;DHT22;24220;48.168;14.024;2023-04-25T04:50:59;13.60;64.00
38436;DHT22;24220;48.168;14.024;2023-04-25T04:53:27;13.60;64.10
38436;DHT22;24220;48.168;14.024;2023-04-25T04:55:55;13.60;64.20
38436;DHT22;24220;48.168;14.024;2023-04-25T04:58:27;13.70;64.30
38436;DHT22;24220;48.168;14.024;2023-04-25T05:00:56;13.60;64.40
38436;DHT22;24220;48.168;14.024;2023-04-25T05:07:06;13.80;64.80
38436;DHT22;24220;48.168;14.024;2023-04-25T05:09:34;13.80;64.50
38436;DHT22;24220;48.168;14.024;2023-04-25T05:12:03;13.80;64.70
38436;DHT22;24220;48.168;14.024;2023-04-25T05:14:31;13.80;64.70
38436;DHT22;24220;48.168;14.024;2023-04-25T05:17:02;13.90;64.80
38436;DHT22;24220;48.168;14.024;2023-04-25T05:19:32;13.90;64.80
38436;DHT22;24220;48.168;14.024;2023-04-25T05:21:59;13.90;64.90
38436;DHT22;24220;48.168;14.024;2023-04-25T05:24:26;14.00;64.90
38436;DHT22;24220;48.168;14.024;2023-04-25T05:26:54;14.00;64.70
38436;DHT22;24220;48.168;14.024;2023-04-25T05:29:21;14.00;64.30
38436;DHT22;24220;48.168;14.024;2023-04-25T05:31:48;14.00;64.30
38436;DHT22;24220;48.168;14.024;2023-04-25T05:34:16;14.10;64.50
38436;DHT22;24220;48.168;14.024;2023-04-25T05:36:45;14.00;64.50
38436;DHT22;24220;48.168;14.024;2023-04-25T05:39:16;14.10;64.40
38436;DHT22;24220;48.168;14.024;2023-04-25T05:41:44;14.10;64.30
38436;DHT22;24220;48.168;14.024;2023-04-25T05:44:11;14.10;64.30
38436;DHT22;24220;48.168;14.024;2023-04-25T05:46:43;14.10;64.80
38436;DHT22;24220;48.168;14.024;2023-04-25T05:49:10;14.20;64.20
38436;DHT22;24220;48.168;14.024;2023-04-25T05:51:38;14.20;64.50
38436;DHT22;24220;48.168;14.024;2023-04-25T05:54:05;14.20;64.40
38436;DHT22;24220;48.168;14.024;2023-04-25T05:56:32;14.30;64.50
38436;DHT22;24220;48.168;14.024;2023-04-25T05:59:02;14.30;64.40
38436;DHT22;24220;48.168;14.024;2023-04-25T06:01:30;14.40;64.10
38436;DHT22;24220;48.168;14.024;2023-04-25T06:03:59;14.40;64.00
38436;DHT22;24220;48.168;14.024;2023-04-25T06:06:27;14.50;63.90
38436;DHT22;24220;48.168;14.024;2023-04-25T06:08:54;14.60;63.60
38436;DHT22;24220;48.168;14.024;2023-04-25T06:11:22;14.70;63.40
38436;DHT22;24220;48.168;14.024;2023-04-25T06:13:52;14.70;63.30
38436;DHT22;24220;48.168;14.024;2023-04-25T06:16:20;14.70;63.30
38436;DHT22;24220;48.168;14.024;2023-04-25T06:18:47;14.70;63.50
38436;DHT22;24220;48.168;14.024;2023-04-25T06:21:15;14.80;64.50
38436;DHT22;24220;48.168;14.024;2023-04-25T06:23:45;14.90;63.90
38436;DHT22;24220;48.168;14.024;2023-04-25T06:26:12;15.00;63.60
38436;DHT22;24220;48.168;14.024;2023-04-25T06:28:39;15.20;63.80
38436;DHT22;24220;48.168;14.024;2023-04-25T06:31:07;15.30;63.50
38436;DHT22;24220;48.168;14.024;2023-04-25T06:33:34;15.40;63.50
38436;DHT22;24220;48.168;14.024;2023-04-25T06:36:04;15.60;63.40
38436;DHT22;24220;48.168;14.024;2023-04-25T06:38:34;15.70;63.40
38436;DHT22;24220;48.168;14.024;2023-04-25T06:41:02;15.90;62.90
38436;DHT22;24220;48.168;14.024;2023-04-25T06:43:29;16.00;62.40
38436;DHT22;24220;48.168;14.024;2023-04-25T06:46:00;16.20;61.70
38436;DHT22;24220;48.168;14.024;2023-04-25T06:48:27;16.30;60.90
38436;DHT22;24220;48.168;14.024;2023-04-25T06:50:55;16.30;60.20
38436;DHT22;24220;48.168;14.024;2023-04-25T06:53:23;16.40;59.90
38436;DHT22;24220;48.168;14.024;2023-04-25T06:55:51;16.40;59.80
38436;DHT22;24220;48.168;14.024;2023-04-25T06:58:18;16.40;59.30
38436;DHT22;24220;48.168;14.024;2023-04-25T07:00:46;16.30;58.90
38436;DHT22;24220;48.168;14.024;2023-04-25T07:03:13;16.30;58.70
38436;DHT22;24220;48.168;14.024;2023-04-25T07:05:40;16.30;58.90
38436;DHT22;24220;48.168;14.024;2023-04-25T07:08:08;16.20;58.90
38436;DHT22;24220;48.168;14.024;2023-04-25T07:10:35;16.20;58.90
38436;DHT22;24220;48.168;14.024;2023-04-25T07:13:03;16.20;58.90
38436;DHT22;24220;48.168;14.024;2023-04-25T07:15:30;16.10;58.80
38436;DHT22;24220;48.168;14.024;2023-04-25T07:17:58;16.10;58.80
38436;DHT22;24220;48.168;14.024;2023-04-25T07:20:25;16.10;59.30
38436;DHT22;24220;48.168;14.024;2023-04-25T07:22:54;16.00;59.20
38436;DHT22;24220;48.168;14.024;2023-04-25T07:25:24;16.00;59.30
38436;DHT22;24220;48.168;14.024;2023-04-25T07:27:56;16.00;59.30
38436;DHT22;24220;48.168;14.024;2023-04-25T07:30:23;15.90;59.40
38436;DHT22;24220;48.168;14.024;2023-04-25T07:32:51;15.90;59.50
38436;DHT22;24220;48.168;14.024;2023-04-25T07:35:18;15.90;59.70
38436;DHT22;24220;48.168;14.024;2023-04-25T07:37:46;15.90;59.60
38436;DHT22;24220;48.168;14.024;2023-04-25T07:40:13;15.90;59.80
38436;DHT22;24220;48.168;14.024;2023-04-25T07:42:43;15.90;60.00
38436;DHT22;24220;48.168;14.024;2023-04-25T07:45:15;15.80;59.90
38436;DHT22;24220;48.168;14.024;2023-04-25T07:47:43;15.80;59.60
38436;DHT22;24220;48.168;14.024;2023-04-25T07:50:10;15.80;59.70
38436;DHT22;24220;48.168;14.024;2023-04-25T07:52:38;15.90;60.20
38436;DHT22;24220;48.168;14.024;2023-04-25T07:55:05;15.90;59.50
38436;DHT22;24220;48.168;14.024;2023-04-25T07:57:32;15.90;59.80
38436;DHT22;24220;48.168;14.024;2023-04-25T08:00:00;16.00;60.00
38436;DHT22;24220;48.168;14.024;2023-04-25T08:02:27;16.00;59.80
38436;DHT22;24220;48.168;14.024;2023-04-25T08:04:58;16.10;59.90
38436;DHT22;24220;48.168;14.024;2023-04-25T08:07:25;16.10;59.70
38436;DHT22;24220;48.168;14.024;2023-04-25T08:09:55;16.20;60.10
38436;DHT22;24220;48.168;14.024;2023-04-25T08:12:23;16.40;60.40
38436;DHT22;24220;48.168;14.024;2023-04-25T08:14:50;16.50;60.00
38436;DHT22;24220;48.168;14.024;2023-04-25T08:17:18;16.70;59.50
38436;DHT22;24220;48.168;14.024;2023-04-25T08:19:47;16.90;58.80
38436;DHT22;24220;48.168;14.024;2023-04-25T08:22:17;17.10;58.30
38436;DHT22;24220;48.168;14.024;2023-04-25T08:24:44;17.20;57.80
38436;DHT22;24220;48.168;14.024;2023-04-25T08:27:11;17.40;57.10
38436;DHT22;24220;48.168;14.024;2023-04-25T08:29:42;17.50;57.00
38436;DHT22;24220;48.168;14.024;2023-04-25T08:32:11;17.60;57.60
38436;DHT22;24220;48.168;14.024;2023-04-25T08:34:39;17.70;56.90
38436;DHT22;24220;48.168;14.024;2023-04-25T08:37:09;17.90;57.00
38436;DHT22;24220;48.168;14.024;2023-04-25T08:39:37;18.00;56.00
38436;DHT22;24220;48.168;14.024;2023-04-25T08:42:06;18.10;55.20
38436;DHT22;24220;48.168;14.024;2023-04-25T08:44:37;18.20;54.20
38436;DHT22;24220;48.168;14.024;2023-04-25T08:47:05;18.20;54.30
38436;DHT22;24220;48.168;14.024;2023-04-25T08:49:36;18.20;54.50
38436;DHT22;24220;48.168;14.024;2023-04-25T08:52:05;18.10;55.00
38436;DHT22;24220;48.168;14.024;2023-04-25T08:54:34;18.20;54.60
38436;DHT22;24220;48.168;14.024;2023-04-25T08:57:05;18.20;54.00
38436;DHT22;24220;48.168;14.024;2023-04-25T08:59:33;18.20;53.80
38436;DHT22;24220;48.168;14.024;2023-04-25T09:02:03;18.30;53.80
38436;DHT22;24220;48.168;14.024;2023-04-25T09:04:33;18.20;53.80
38436;DHT22;24220;48.168;14.024;2023-04-25T09:07:01;18.20;53.80
38436;DHT22;24220;48.168;14.024;2023-04-25T09:09:31;18.20;54.10
38436;DHT22;24220;48.168;14.024;2023-04-25T09:11:59;18.20;54.30
38436;DHT22;24220;48.168;14.024;2023-04-25T09:14:28;18.10;53.80
38436;DHT22;24220;48.168;14.024;2023-04-25T09:19:30;18.10;53.40
38436;DHT22;24220;48.168;14.024;2023-04-25T09:22:10;18.10;53.30
38436;DHT22;24220;48.168;14.024;2023-04-25T09:27:10;18.10;53.80
38436;DHT22;24220;48.168;14.024;2023-04-25T09:29:39;18.20;54.00
38436;DHT22;24220;48.168;14.024;2023-04-25T09:34:44;18.30;53.50
38436;DHT22;24220;48.168;14.024;2023-04-25T09:37:28;18.40;54.40
38436;DHT22;24220;48.168;14.024;2023-04-25T09:40:00;18.50;53.50
38436;DHT22;24220;48.168;14.024;2023-04-25T09:42:30;18.60;53.80
38436;DHT22;24220;48.168;14.024;2023-04-25T09:44:59;18.70;53.10
38436;DHT22;24220;48.168;14.024;2023-04-25T09:47:29;18.80;52.10
38436;DHT22;24220;48.168;14.024;2023-04-25T09:49:56;18.80;52.40
38436;DHT22;24220;48.168;14.024;2023-04-25T09:52:25;18.80;52.10
38436;DHT22;24220;48.168;14.024;2023-04-25T09:54:52;18.80;51.90
38436;DHT22;24220;48.168;14.024;2023-04-25T09:57:21;18.80;51.80
38436;DHT22;24220;48.168;14.024;2023-04-25T09:59:53;18.80;51.30
38436;DHT22;24220;48.168;14.024;2023-04-25T10:02:24;18.70;50.80
38436;DHT22;24220;48.168;14.024;2023-04-25T10:04:54;18.70;51.20
38436;DHT22;24220;48.168;14.024;2023-04-25T10:07:25;18.80;50.70
38436;DHT22;24220;48.168;14.024;2023-04-25T10:10:01;18.80;50.80
38436;DHT22;24220;48.168;14.024;2023-04-25T10:12:30;18.70;49.30
38436;DHT22;24220;48.168;14.024;2023-04-25T10:15:00;18.60;48.80
38436;DHT22;24220;48.168;14.024;2023-04-25T10:17:29;18.50;49.60
38436;DHT22;24220;48.168;14.024;2023-04-25T10:20:03;18.40;50.50
38436;DHT22;24220;48.168;14.024;2023-04-25T10:22:36;18.20;51.60
38436;DHT22;24220;48.168;14.024;2023-04-25T10:25:05;18.00;52.40
38436;DHT22;24220;48.168;14.024;2023-04-25T10:27:34;17.80;53.20
38436;DHT22;24220;48.168;14.024;2023-04-25T10:30:06;17.70;54.10
38436;DHT22;24220;48.168;14.024;2023-04-25T10:32:37;17.50;55.20
38436;DHT22;24220;48.168;14.024;2023-04-25T10:35:33;17.40;56.10
38436;DHT22;24220;48.168;14.024;2023-04-25T10:40:33;17.20;55.50
38436;DHT22;24220;48.168;14.024;2023-04-25T10:46:26;17.10;55.30
38436;DHT22;24220;48.168;14.024;2023-04-25T10:48:56;17.20;55.40
38436;DHT22;24220;48.168;14.024;2023-04-25T10:51:27;17.20;55.20
38436;DHT22;24220;48.168;14.024;2023-04-25T10:54:07;17.20;56.10
38436;DHT22;24220;48.168;14.024;2023-04-25T10:56:40;17.20;58.00
38436;DHT22;24220;48.168;14.024;2023-04-25T10:59:28;17.20;60.10
38436;DHT22;24220;48.168;14.024;2023-04-25T11:01:55;17.10;60.50
38436;DHT22;24220;48.168;14.024;2023-04-25T11:09:34;16.80;62.20
38436;DHT22;24220;48.168;14.024;2023-04-25T11:12:02;16.70;63.30
38436;DHT22;24220;48.168;14.024;2023-04-25T11:14:32;16.70;63.40
38436;DHT22;24220;48.168;14.024;2023-04-25T11:17:00;16.60;62.90
38436;DHT22;24220;48.168;14.024;2023-04-25T11:19:29;16.60;62.80
38436;DHT22;24220;48.168;14.024;2023-04-25T11:21:57;16.60;63.10
38436;DHT22;24220;48.168;14.024;2023-04-25T11:24:30;16.60;62.70
38436;DHT22;24220;48.168;14.024;2023-04-25T11:27:01;16.60;62.00
38436;DHT22;24220;48.168;14.024;2023-04-25T11:29:34;16.60;61.80
38436;DHT22;24220;48.168;14.024;2023-04-25T11:32:02;16.60;62.30
38436;DHT22;24220;48.168;14.024;2023-04-25T11:34:33;16.70;62.50
38436;DHT22;24220;48.168;14.024;2023-04-25T11:37:02;16.70;62.40
38436;DHT22;24220;48.168;14.024;2023-04-25T11:39:29;16.70;63.40
38436;DHT22;24220;48.168;14.024;2023-04-25T11:41:57;16.80;63.70
38436;DHT22;24220;48.168;14.024;2023-04-25T11:44:28;16.90;63.70
38436;DHT22;24220;48.168;14.024;2023-04-25T11:46:55;17.00;62.50
38436;DHT22;24220;48.168;14.024;2023-04-25T11:49:30;17.10;62.90
38436;DHT22;24220;48.168;14.024;2023-04-25T11:51:58;17.20;62.40
38436;DHT22;24220;48.168;14.024;2023-04-25T11:54:25;17.30;62.90
38436;DHT22;24220;48.168;14.024;2023-04-25T11:56:53;17.40;62.60
38436;DHT22;24220;48.168;14.024;2023-04-25T11:59:24;17.50;63.40
38436;DHT22;24220;48.168;14.024;2023-04-25T12:01:52;17.70;63.50
38436;DHT22;24220;48.168;14.024;2023-04-25T12:04:23;17.90;62.90
38436;DHT22;24220;48.168;14.024;2023-04-25T12:06:52;18.00;63.60
38436;DHT22;24220;48.168;14.024;2023-04-25T12:09:31;18.20;62.70
38436;DHT22;24220;48.168;14.024;2023-04-25T12:12:00;18.30;60.90
38436;DHT22;24220;48.168;14.024;2023-04-25T12:14:32;18.40;60.90
38436;DHT22;24220;48.168;14.024;2023-04-25T12:17:04;18.40;61.40
38436;DHT22;24220;48.168;14.024;2023-04-25T12:19:38;18.50;60.10
38436;DHT22;24220;48.168;14.024;2023-04-25T12:22:23;18.60;59.70
38436;DHT22;24220;48.168;14.024;2023-04-25T12:24:51;18.60;57.90
38436;DHT22;24220;48.168;14.024;2023-04-25T12:27:21;18.70;57.90
38436;DHT22;24220;48.168;14.024;2023-04-25T12:29:55;18.80;57.80
38436;DHT22;24220;48.168;14.024;2023-04-25T12:32:23;18.80;55.40
38436;DHT22;24220;48.168;14.024;2023-04-25T12:34:51;18.90;54.80
38436;DHT22;24220;48.168;14.024;2023-04-25T12:37:18;18.90;54.20
38436;DHT22;24220;48.168;14.024;2023-04-25T12:39:50;18.90;54.00
38436;DHT22;24220;48.168;14.024;2023-04-25T12:42:18;18.80;53.70
38436;DHT22;24220;48.168;14.024;2023-04-25T12:44:45;18.80;53.90
38436;DHT22;24220;48.168;14.024;2023-04-25T12:47:13;18.70;53.30
38436;DHT22;24220;48.168;14.024;2023-04-25T12:49:41;18.60;53.80
38436;DHT22;24220;48.168;14.024;2023-04-25T12:52:09;18.60;54.20
38436;DHT22;24220;48.168;14.024;2023-04-25T12:54:37;18.50;53.80
38436;DHT22;24220;48.168;14.024;2023-04-25T12:57:04;18.50;54.30
38436;DHT22;24220;48.168;14.024;2023-04-25T12:59:31;18.40;54.90
38436;DHT22;24220;48.168;14.024;2023-04-25T13:01:59;18.40;55.60
38436;DHT22;24220;48.168;14.024;2023-04-25T13:04:31;18.30;56.30
38436;DHT22;24220;48.168;14.024;2023-04-25T13:06:58;18.30;56.60
38436;DHT22;24220;48.168;14.024;2023-04-25T13:09:26;18.20;57.50
38436;DHT22;24220;48.168;14.024;2023-04-25T13:11:53;18.10;57.40
38436;DHT22;24220;48.168;14.024;2023-04-25T13:14:24;18.10;58.20
38436;DHT22;24220;48.168;14.024;2023-04-25T13:16:51;17.90;57.70
38436;DHT22;24220;48.168;14.024;2023-04-25T13:19:19;17.80;57.90
38436;DHT22;24220;48.168;14.024;2023-04-25T13:21:46;17.60;57.90
38436;DHT22;24220;48.168;14.024;2023-04-25T13:24:14;17.50;57.80
38436;DHT22;24220;48.168;14.024;2023-04-25T13:26:43;17.50;58.60
38436;DHT22;24220;48.168;14.024;2023-04-25T13:29:11;17.40;58.90
38436;DHT22;24220;48.168;14.024;2023-04-25T13:31:38;17.20;59.10
38436;DHT22;24220;48.168;14.024;2023-04-25T13:34:05;17.10;60.50
38436;DHT22;24220;48.168;14.024;2023-04-25T13:36:33;17.00;61.40
38436;DHT22;24220;48.168;14.024;2023-04-25T13:39:00;16.90;62.00
38436;DHT22;24220;48.168;14.024;2023-04-25T13:41:33;16.80;62.50
38436;DHT22;24220;48.168;14.024;2023-04-25T13:44:01;16.70;63.00
38436;DHT22;24220;48.168;14.024;2023-04-25T13:46:30;16.70;63.40
38436;DHT22;24220;48.168;14.024;2023-04-25T13:49:12;16.60;64.10
38436;DHT22;24220;48.168;14.024;2023-04-25T13:51:40;16.70;64.20
38436;DHT22;24220;48.168;14.024;2023-04-25T13:54:12;16.70;64.40
38436;DHT22;24220;48.168;14.024;2023-04-25T13:56:40;16.70;64.40
38436;DHT22;24220;48.168;14.024;2023-04-25T13:59:09;16.80;64.30
38436;DHT22;24220;48.168;14.024;2023-04-25T14:01:37;16.80;64.00
38436;DHT22;24220;48.168;14.024;2023-04-25T14:04:05;16.90;63.90
38436;DHT22;24220;48.168;14.024;2023-04-25T14:06:34;17.00;63.60
38436;DHT22;24220;48.168;14.024;2023-04-25T14:09:02;17.00;63.40
38436;DHT22;24220;48.168;14.024;2023-04-25T14:11:34;17.00;63.20
38436;DHT22;24220;48.168;14.024;2023-04-25T14:14:01;17.10;62.50
38436;DHT22;24220;48.168;14.024;2023-04-25T14:16:31;17.10;62.30
38436;DHT22;24220;48.168;14.024;2023-04-25T14:18:58;17.20;62.90
38436;DHT22;24220;48.168;14.024;2023-04-25T14:21:29;17.20;62.50
38436;DHT22;24220;48.168;14.024;2023-04-25T14:23:58;17.30;61.90
38436;DHT22;24220;48.168;14.024;2023-04-25T14:26:26;17.30;61.40
38436;DHT22;24220;48.168;14.024;2023-04-25T14:28:53;17.40;61.70
38436;DHT22;24220;48.168;14.024;2023-04-25T14:31:23;17.40;60.50
38436;DHT22;24220;48.168;14.024;2023-04-25T14:33:50;17.50;60.40
38436;DHT22;24220;48.168;14.024;2023-04-25T14:36:18;17.50;60.30
38436;DHT22;24220;48.168;14.024;2023-04-25T14:38:48;17.50;60.00
38436;DHT22;24220;48.168;14.024;2023-04-25T14:41:15;17.60;60.40
38436;DHT22;24220;48.168;14.024;2023-04-25T14:43:42;17.60;59.40
38436;DHT22;24220;48.168;14.024;2023-04-25T14:46:10;17.60;59.30
38436;DHT22;24220;48.168;14.024;2023-04-25T14:48:38;17.60;59.20
38436;DHT22;24220;48.168;14.024;2023-04-25T14:51:06;17.60;58.90
38436;DHT22;24220;48.168;14.024;2023-04-25T14:53:33;17.60;58.60
38436;DHT22;24220;48.168;14.024;2023-04-25T14:56:01;17.60;58.50
38436;DHT22;24220;48.168;14.024;2023-04-25T14:58:31;17.60;58.70
38436;DHT22;24220;48.168;14.024;2023-04-25T15:00:59;17.60;58.20
38436;DHT22;24220;48.168;14.024;2023-04-25T15:03:26;17.60;57.90
38436;DHT22;24220;48.168;14.024;2023-04-25T15:05:55;17.60;57.50
38436;DHT22;24220;48.168;14.024;2023-04-25T15:08:22;17.60;57.10
38436;DHT22;24220;48.168;14.024;2023-04-25T15:10:52;17.50;56.60
38436;DHT22;24220;48.168;14.024;2023-04-25T15:13:20;17.50;56.80
38436;DHT22;24220;48.168;14.024;2023-04-25T15:15:47;17.50;56.30
38436;DHT22;24220;48.168;14.024;2023-04-25T15:18:22;17.40;56.40
38436;DHT22;24220;48.168;14.024;2023-04-25T15:20:51;17.40;56.60
38436;DHT22;24220;48.168;14.024;2023-04-25T15:23:20;17.30;56.20
38436;DHT22;24220;48.168;14.024;2023-04-25T15:25:52;17.30;56.20
38436;DHT22;24220;48.168;14.024;2023-04-25T15:28:19;17.30;55.80
38436;DHT22;24220;48.168;14.024;2023-04-25T15:30:48;17.30;55.90
38436;DHT22;24220;48.168;14.024;2023-04-25T15:33:16;17.20;55.70
38436;DHT22;24220;48.168;14.024;2023-04-25T15:35:45;17.20;56.10
38436;DHT22;24220;48.168;14.024;2023-04-25T15:38:13;17.20;56.30
38436;DHT22;24220;48.168;14.024;2023-04-25T15:40:43;17.20;56.30
38436;DHT22;24220;48.168;14.024;2023-04-25T15:43:13;17.20;56.30
38436;DHT22;24220;48.168;14.024;2023-04-25T15:45:42;17.10;56.80
38436;DHT22;24220;48.168;14.024;2023-04-25T15:48:10;17.10;56.90
38436;DHT22;24220;48.168;14.024;2023-04-25T15:50:37;17.10;56.80
38436;DHT22;24220;48.168;14.024;2023-04-25T15:53:07;17.10;56.60
38436;DHT22;24220;48.168;14.024;2023-04-25T15:55:35;17.10;56.80